Time;durP1;ratioP1;P1;durP2;ratioP2;P2;SDS_P1;SDS_P2;PMS_P1;PMS_P2;Temp;Humidity;BMP_temperature;BMP_pressure;BME280_temperature;BME280_humidity;BME280_pressure;Samples;Min_cycle;Max_cycle;Signal;HPM_P1;HPM_P2
2022/05/14 00:00:40;;;;;;;14.00;5.60;;;10.90;99.90;;;;;;4938629;29;20051;-64
2022/05/14 00:03:06;;;;;;;13.23;5.70;;;10.90;99.90;;;;;;4949647;28;20172;-63
2022/05/14 00:05:31;;;;;;;12.93;5.43;;;10.80;99.90;;;;;;4950422;28;20085;-65
2022/05/14 00:07:57;;;;;;;13.75;5.72;;;10.80;99.90;;;;;;4936728;28;20117;-64
2022/05/14 00:10:26;;;;;;;12.80;5.70;;;10.70;99.90;;;;;;4937245;29;20079;-64
2022/05/14 00:13:04;;;;;;;14.57;6.32;;;10.70;99.90;;;;;;4948882;28;20130;-64
2022/05/14 00:15:42;;;;;;;13.30;5.80;;;10.70;99.90;;;;;;4942583;28;20773;-64
2022/05/14 00:18:09;;;;;;;12.50;6.07;;;10.70;99.90;;;;;;4937790;28;20137;-64
2022/05/14 00:20:36;;;;;;;11.93;5.80;;;10.70;99.90;;;;;;4950251;28;20055;-64
2022/05/14 00:23:03;;;;;;;11.45;5.43;;;10.70;99.90;;;;;;4949583;28;20046;-64
2022/05/14 00:25:29;;;;;;;10.10;5.82;;;10.80;99.90;;;;;;4940302;28;20402;-63
2022/05/14 00:27:55;;;;;;;10.73;5.18;;;10.80;99.90;;;;;;4947181;28;20051;-64
2022/05/14 00:30:27;;;;;;;14.18;5.95;;;10.90;99.90;;;;;;4949939;28;20046;-64
2022/05/14 00:32:53;;;;;;;12.63;5.32;;;10.90;99.90;;;;;;4945691;28;20043;-63
2022/05/14 00:35:19;;;;;;;12.57;5.47;;;11.00;99.90;;;;;;4949230;28;20105;-64
2022/05/14 00:37:45;;;;;;;11.23;5.13;;;11.10;99.90;;;;;;4949146;28;20051;-63
2022/05/14 00:40:22;;;;;;;14.05;5.20;;;11.20;99.90;;;;;;4942076;28;20062;-64
2022/05/14 00:42:48;;;;;;;11.80;5.47;;;11.20;99.90;;;;;;4939608;29;20066;-64
2022/05/14 00:45:16;;;;;;;11.77;5.80;;;11.30;99.90;;;;;;4949672;28;20039;-64
2022/05/14 00:47:48;;;;;;;10.40;4.75;;;11.30;99.90;;;;;;4949918;28;20047;-64
2022/05/14 00:50:32;;;;;;;9.55;5.10;;;11.30;99.90;;;;;;4934051;28;20102;-63
2022/05/14 00:53:09;;;;;;;14.85;5.53;;;11.20;99.90;;;;;;4948315;29;20787;-64
2022/05/14 00:55:37;;;;;;;11.20;5.03;;;11.20;99.90;;;;;;4950087;28;20139;-65
2022/05/14 00:58:03;;;;;;;13.38;5.07;;;11.20;99.90;;;;;;4949800;28;20141;-64
2022/05/14 01:00:30;;;;;;;10.73;4.90;;;11.20;99.90;;;;;;4947134;28;20043;-64
2022/05/14 01:02:56;;;;;;;10.73;5.25;;;11.20;99.90;;;;;;4950725;28;20055;-64
2022/05/14 01:05:23;;;;;;;9.85;5.03;;;11.20;99.90;;;;;;4947252;28;20062;-63
2022/05/14 01:07:50;;;;;;;14.10;5.57;;;11.20;99.90;;;;;;4941205;28;20052;-64
2022/05/14 01:10:18;;;;;;;12.50;4.80;;;11.20;99.90;;;;;;4953216;28;20130;-65
2022/05/14 01:12:58;;;;;;;12.63;5.07;;;11.20;99.90;;;;;;4953176;28;20051;-66
2022/05/14 01:15:36;;;;;;;13.35;5.25;;;11.20;99.90;;;;;;4936990;28;20046;-66
2022/05/14 01:18:02;;;;;;;9.32;4.32;;;11.20;99.90;;;;;;4945403;28;20482;-65
2022/05/14 01:20:28;;;;;;;15.15;4.80;;;11.20;99.90;;;;;;4953524;28;20054;-66
2022/05/14 01:23:10;;;;;;;11.15;4.68;;;11.20;99.90;;;;;;4941924;28;20079;-64
2022/05/14 01:28:24;;;;;;;12.75;4.57;;;11.20;99.90;;;;;;4948291;28;20086;-65
2022/05/14 01:30:55;;;;;;;9.43;4.47;;;11.20;99.90;;;;;;4949048;28;20071;-65
2022/05/14 01:33:20;;;;;;;16.88;4.80;;;11.30;99.90;;;;;;4940262;28;20573;-64
2022/05/14 01:35:46;;;;;;;12.82;4.20;;;11.30;99.90;;;;;;4941699;29;20055;-66
2022/05/14 01:38:11;;;;;;;11.73;4.82;;;11.30;99.90;;;;;;4951456;28;20042;-63
2022/05/14 01:40:37;;;;;;;8.60;4.78;;;11.30;99.90;;;;;;4940461;29;20051;-63
2022/05/14 01:43:03;;;;;;;11.05;4.53;;;11.30;99.90;;;;;;4952022;28;20560;-66
2022/05/14 01:45:30;;;;;;;10.80;4.70;;;11.30;99.90;;;;;;4953080;28;20051;-66
2022/05/14 01:47:55;;;;;;;12.52;4.68;;;11.30;99.90;;;;;;4941692;28;20118;-65
2022/05/14 01:50:21;;;;;;;15.05;4.90;;;11.30;99.90;;;;;;4951871;28;20055;-64
2022/05/14 01:52:47;;;;;;;8.05;4.43;;;11.30;99.90;;;;;;4952097;28;20521;-64
2022/05/14 01:55:12;;;;;;;11.75;4.90;;;11.30;99.90;;;;;;4946428;28;20040;-64
2022/05/14 01:57:38;;;;;;;13.43;4.82;;;11.30;99.90;;;;;;4951274;28;20079;-64
2022/05/14 02:00:06;;;;;;;11.73;5.03;;;11.30;99.90;;;;;;4952378;28;20219;-64
2022/05/14 02:02:31;;;;;;;12.48;5.10;;;11.40;99.90;;;;;;4952033;28;20043;-64
2022/05/14 02:04:57;;;;;;;11.55;4.90;;;11.30;99.90;;;;;;4946111;28;20039;-64
2022/05/14 02:07:22;;;;;;;14.20;5.75;;;11.40;99.90;;;;;;4947603;28;20039;-64
2022/05/14 02:09:48;;;;;;;16.60;5.13;;;11.40;99.90;;;;;;4951950;28;20514;-65
2022/05/14 02:12:13;;;;;;;13.40;5.18;;;11.40;99.90;;;;;;4948683;28;20545;-67
2022/05/14 02:14:39;;;;;;;14.63;5.20;;;11.40;99.90;;;;;;4949276;28;20050;-64
2022/05/14 02:17:05;;;;;;;14.63;5.45;;;11.40;99.90;;;;;;4950735;28;20051;-64
2022/05/14 02:19:31;;;;;;;9.82;5.03;;;11.40;99.90;;;;;;4952502;28;20031;-64
2022/05/14 02:21:56;;;;;;;13.38;6.22;;;11.40;99.90;;;;;;4945855;29;20039;-64
2022/05/14 02:24:22;;;;;;;18.35;5.40;;;11.30;99.90;;;;;;4944928;29;20111;-64
2022/05/14 02:26:48;;;;;;;13.35;5.45;;;11.20;99.90;;;;;;4952128;28;20043;-64
2022/05/14 02:29:13;;;;;;;11.88;5.60;;;11.20;99.90;;;;;;4949268;28;20159;-63
2022/05/14 02:31:39;;;;;;;14.27;5.60;;;11.10;99.90;;;;;;4949989;29;20106;-64
2022/05/14 02:34:04;;;;;;;19.95;6.40;;;11.10;99.90;;;;;;4951625;28;20087;-64
2022/05/14 02:36:30;;;;;;;14.07;5.10;;;11.10;99.90;;;;;;4951733;28;20114;-64
2022/05/14 02:38:55;;;;;;;17.58;5.63;;;11.10;99.90;;;;;;4944038;28;20521;-65
2022/05/14 02:41:21;;;;;;;14.90;5.75;;;11.10;99.90;;;;;;4942590;29;20135;-64
2022/05/14 02:43:46;;;;;;;15.10;5.88;;;11.10;99.90;;;;;;4950978;28;20051;-64
2022/05/14 02:46:12;;;;;;;11.57;5.28;;;11.00;99.90;;;;;;4942787;28;20043;-64
2022/05/14 02:48:38;;;;;;;14.13;5.70;;;11.00;99.90;;;;;;4942851;28;20092;-64
2022/05/14 02:51:04;;;;;;;12.02;5.53;;;10.90;99.90;;;;;;4951769;28;20059;-64
2022/05/14 02:53:30;;;;;;;15.05;6.10;;;10.90;99.90;;;;;;4942730;29;20040;-65
2022/05/14 02:55:56;;;;;;;12.70;5.97;;;10.90;99.90;;;;;;4938524;29;20565;-65
2022/05/14 03:01:07;;;;;;;12.57;5.80;;;10.80;99.90;;;;;;4951533;28;20051;-64
2022/05/14 03:03:32;;;;;;;15.35;6.22;;;10.80;99.90;;;;;;4944049;28;20134;-64
2022/05/14 03:05:59;;;;;;;17.98;5.80;;;10.70;99.90;;;;;;4949705;29;20126;-64
2022/05/14 03:08:25;;;;;;;11.93;6.10;;;10.60;99.90;;;;;;4951166;28;20070;-64
2022/05/14 03:10:50;;;;;;;16.65;5.65;;;10.60;99.90;;;;;;4951499;28;20458;-64
2022/05/14 03:13:16;;;;;;;14.10;6.43;;;10.50;99.90;;;;;;4937774;28;20035;-64
2022/05/14 03:15:42;;;;;;;13.65;5.63;;;10.40;99.90;;;;;;4948893;28;20522;-65
2022/05/14 03:18:08;;;;;;;18.27;6.15;;;10.30;99.90;;;;;;4950193;28;20035;-65
2022/05/14 03:20:33;;;;;;;17.70;7.03;;;10.20;99.90;;;;;;4938224;28;20122;-65
2022/05/14 03:22:59;;;;;;;12.45;6.32;;;10.10;99.90;;;;;;4949690;29;20075;-65
2022/05/14 03:25:25;;;;;;;14.80;6.60;;;10.00;99.90;;;;;;4950464;28;20051;-65
2022/05/14 03:27:51;;;;;;;14.82;6.85;;;10.00;99.90;;;;;;4947974;28;20043;-65
2022/05/14 03:30:17;;;;;;;13.30;7.20;;;9.90;99.90;;;;;;4944734;29;20044;-65
2022/05/14 03:32:43;;;;;;;15.48;6.18;;;9.80;99.90;;;;;;4936095;28;20083;-65
2022/05/14 03:35:09;;;;;;;19.70;6.88;;;9.80;99.90;;;;;;4933613;28;20139;-64
2022/05/14 03:37:36;;;;;;;16.17;7.30;;;9.80;99.90;;;;;;4944912;28;20098;-65
2022/05/14 03:40:03;;;;;;;18.98;7.28;;;9.70;99.90;;;;;;4942763;29;20486;-65
2022/05/14 03:42:30;;;;;;;18.30;7.07;;;9.70;99.90;;;;;;4950543;28;20046;-65
2022/05/14 03:44:56;;;;;;;17.83;6.85;;;9.70;99.90;;;;;;4943093;28;20047;-64
2022/05/14 03:47:22;;;;;;;18.48;6.75;;;9.70;99.90;;;;;;4941354;28;20391;-65
2022/05/14 03:49:47;;;;;;;15.90;6.63;;;9.60;99.90;;;;;;4949841;28;20490;-65
2022/05/14 03:52:13;;;;;;;16.20;6.40;;;9.60;99.90;;;;;;4946713;28;20042;-65
2022/05/14 03:54:39;;;;;;;16.42;6.57;;;9.60;99.90;;;;;;4933833;28;20043;-64
2022/05/14 03:57:06;;;;;;;14.73;6.50;;;9.60;99.90;;;;;;4949895;28;20086;-65
2022/05/14 03:59:33;;;;;;;13.15;6.50;;;9.60;99.90;;;;;;4945582;28;20251;-65
2022/05/14 04:01:59;;;;;;;11.85;6.07;;;9.60;99.90;;;;;;4946478;29;20070;-65
2022/05/14 04:04:25;;;;;;;16.17;6.47;;;9.60;99.90;;;;;;4949155;28;20505;-65
2022/05/14 04:06:53;;;;;;;18.40;7.00;;;9.60;99.90;;;;;;4950785;28;20047;-65
2022/05/14 04:09:19;;;;;;;16.00;6.55;;;9.50;99.90;;;;;;4939836;28;20731;-66
2022/05/14 04:11:45;;;;;;;13.05;6.65;;;9.50;99.90;;;;;;4945819;29;20072;-65
2022/05/14 04:14:12;;;;;;;19.30;6.55;;;9.50;99.90;;;;;;4949017;28;20046;-64
2022/05/14 04:16:38;;;;;;;18.27;7.18;;;9.50;99.90;;;;;;4948884;29;20110;-66
2022/05/14 04:19:04;;;;;;;13.18;6.43;;;9.40;99.90;;;;;;4946226;28;20506;-65
2022/05/14 04:21:29;;;;;;;14.20;6.68;;;9.40;99.90;;;;;;4949601;28;20043;-66
2022/05/14 04:23:55;;;;;;;16.08;6.82;;;9.40;99.90;;;;;;4949254;28;20046;-65
2022/05/14 04:26:22;;;;;;;13.90;7.03;;;9.30;99.90;;;;;;4938066;29;20070;-64
2022/05/14 04:28:48;;;;;;;14.13;6.93;;;9.40;99.90;;;;;;4943386;28;20053;-65
2022/05/14 04:31:14;;;;;;;18.83;7.03;;;9.40;99.90;;;;;;4949801;28;20544;-64
2022/05/14 04:33:39;;;;;;;15.15;7.10;;;9.40;99.90;;;;;;4947988;29;20082;-66
2022/05/14 04:36:05;;;;;;;17.80;7.10;;;9.50;99.90;;;;;;4941012;28;20043;-66
2022/05/14 04:38:31;;;;;;;14.85;7.05;;;9.50;99.90;;;;;;4938577;29;20064;-65
2022/05/14 04:40:56;;;;;;;19.65;7.07;;;9.50;99.90;;;;;;4950074;28;20118;-66
2022/05/14 04:43:22;;;;;;;20.38;7.30;;;9.50;99.90;;;;;;4932260;28;20051;-66
2022/05/14 04:45:48;;;;;;;20.15;7.82;;;9.60;99.90;;;;;;4940339;29;20051;-66
2022/05/14 04:48:13;;;;;;;16.20;7.50;;;9.60;99.90;;;;;;4948193;28;20047;-65
2022/05/14 04:50:39;;;;;;;20.08;7.90;;;9.60;99.90;;;;;;4938282;28;20056;-66
2022/05/14 04:53:05;;;;;;;18.10;7.63;;;9.70;99.90;;;;;;4947371;28;20051;-64
2022/05/14 04:55:31;;;;;;;21.38;8.60;;;9.70;99.90;;;;;;4944609;28;20039;-63
2022/05/14 04:57:58;;;;;;;22.67;8.25;;;9.80;99.90;;;;;;4935379;29;20509;-66
2022/05/14 05:00:24;;;;;;;17.98;7.60;;;9.90;99.90;;;;;;4940593;28;20051;-65
2022/05/14 05:05:34;;;;;;;18.75;7.82;;;10.10;99.90;;;;;;4949734;28;20287;-65
2022/05/14 05:07:59;;;;;;;20.33;8.90;;;10.10;99.90;;;;;;4942411;28;20122;-65
2022/05/14 05:10:26;;;;;;;23.17;8.52;;;10.30;99.90;;;;;;4939204;29;20042;-66
2022/05/14 05:12:51;;;;;;;23.25;8.95;;;10.40;99.90;;;;;;4948201;28;20496;-66
2022/05/14 05:15:17;;;;;;;28.83;8.32;;;10.50;99.90;;;;;;4943214;28;20035;-65
2022/05/14 05:17:43;;;;;;;14.63;8.27;;;10.60;99.90;;;;;;4946410;28;20051;-64
2022/05/14 05:20:09;;;;;;;18.88;8.73;;;10.70;99.90;;;;;;4949339;28;20051;-66
2022/05/14 05:22:37;;;;;;;23.60;9.07;;;10.80;99.90;;;;;;4947807;28;20087;-63
2022/05/14 05:25:03;;;;;;;18.95;8.88;;;10.80;99.90;;;;;;4932630;29;20043;-65
2022/05/14 05:27:28;;;;;;;25.02;9.63;;;11.00;99.90;;;;;;4943084;28;20521;-65
2022/05/14 05:29:54;;;;;;;22.40;8.93;;;11.00;99.90;;;;;;4948802;28;20074;-66
2022/05/14 05:32:20;;;;;;;24.40;9.45;;;11.10;99.90;;;;;;4938051;28;20119;-64
2022/05/14 05:34:46;;;;;;;24.40;9.23;;;11.20;99.90;;;;;;4931106;29;20534;-64
2022/05/14 05:37:12;;;;;;;21.67;9.55;;;11.30;99.90;;;;;;4948524;28;20062;-66
2022/05/14 05:39:37;;;;;;;24.67;10.10;;;11.40;99.90;;;;;;4932719;29;20039;-65
2022/05/14 05:42:03;;;;;;;25.05;9.90;;;11.50;99.90;;;;;;4940349;29;20414;-66
2022/05/14 05:44:29;;;;;;;19.90;8.65;;;11.60;99.90;;;;;;4943575;29;20039;-65
2022/05/14 05:46:54;;;;;;;20.08;9.32;;;11.70;99.90;;;;;;4942501;29;20106;-64
2022/05/14 05:49:21;;;;;;;19.38;9.57;;;11.80;99.90;;;;;;4947377;28;20485;-66
2022/05/14 05:51:46;;;;;;;27.02;9.77;;;11.80;99.90;;;;;;4948449;29;20039;-66
2022/05/14 05:56:57;;;;;;;27.45;9.38;;;11.90;99.90;;;;;;4949042;28;20051;-62
2022/05/14 05:59:25;;;;;;;21.77;9.65;;;12.10;99.90;;;;;;4951863;28;20059;-66
2022/05/14 06:01:52;;;;;;;23.48;10.77;;;12.10;99.90;;;;;;4941057;28;20562;-66
2022/05/14 06:04:18;;;;;;;23.00;10.07;;;12.20;99.90;;;;;;4950160;28;20051;-66
2022/05/14 06:06:44;;;;;;;23.42;10.30;;;12.30;99.90;;;;;;4942091;28;20083;-66
2022/05/14 06:09:15;;;;;;;21.90;10.00;;;12.40;99.90;;;;;;4946077;28;20133;-66
2022/05/14 06:11:42;;;;;;;21.65;9.95;;;12.40;99.90;;;;;;4951876;28;20039;-66
2022/05/14 06:14:08;;;;;;;23.25;9.80;;;12.40;99.90;;;;;;4941073;28;20048;-67
2022/05/14 06:16:34;;;;;;;24.38;11.02;;;12.30;99.90;;;;;;4948284;29;20763;-66
2022/05/14 06:18:59;;;;;;;26.58;10.85;;;12.20;99.90;;;;;;4950507;29;20054;-66
2022/05/14 06:21:25;;;;;;;23.85;10.48;;;12.30;99.90;;;;;;4943504;29;20046;-66
2022/05/14 06:23:51;;;;;;;25.90;10.00;;;12.40;99.90;;;;;;4945266;28;20849;-65
2022/05/14 06:26:17;;;;;;;22.63;10.70;;;12.50;99.90;;;;;;4945617;29;20054;-65
2022/05/14 06:28:42;;;;;;;26.75;10.63;;;12.50;99.90;;;;;;4952164;28;20039;-66
2022/05/14 06:31:08;;;;;;;25.17;10.15;;;12.50;99.90;;;;;;4944006;29;20409;-65
2022/05/14 06:33:34;;;;;;;26.08;10.50;;;12.50;99.90;;;;;;4947952;29;20130;-64
2022/05/14 06:35:59;;;;;;;29.08;11.10;;;12.60;99.90;;;;;;4951011;28;20043;-66
2022/05/14 06:38:26;;;;;;;29.38;10.50;;;12.60;99.90;;;;;;4948874;28;20039;-66
2022/05/14 06:40:52;;;;;;;25.13;10.43;;;12.70;99.90;;;;;;4950428;28;20042;-66
2022/05/14 06:43:18;;;;;;;23.20;10.82;;;12.80;99.90;;;;;;4950941;29;20494;-66
2022/05/14 06:45:44;;;;;;;26.20;11.15;;;12.90;99.90;;;;;;4952004;29;20480;-65
2022/05/14 06:48:10;;;;;;;22.58;10.52;;;13.00;99.90;;;;;;4937098;29;20047;-64
2022/05/14 06:50:48;;;;;;;25.05;10.52;;;13.10;99.90;;;;;;4934712;29;20047;-61
2022/05/14 06:53:15;;;;;;;31.02;11.35;;;13.20;99.90;;;;;;4936563;29;20410;-66
2022/05/14 06:55:44;;;;;;;27.73;10.77;;;13.30;99.90;;;;;;4942675;29;20061;-66
2022/05/14 06:58:17;;;;;;;25.05;11.15;;;13.40;99.90;;;;;;4949895;29;20063;-65
2022/05/14 07:00:44;;;;;;;29.48;10.23;;;13.50;99.90;;;;;;4940852;28;20039;-66
2022/05/14 07:08:39;;;;;;;29.35;10.75;;;13.80;99.90;;;;;;4929808;28;20418;-66
2022/05/14 07:11:05;;;;;;;27.42;10.40;;;14.00;99.90;;;;;;4936934;29;20079;-66
2022/05/14 07:13:31;;;;;;;27.45;10.77;;;14.00;99.90;;;;;;4928005;28;20110;-66
2022/05/14 07:15:56;;;;;;;24.58;10.68;;;14.10;99.90;;;;;;4941032;28;20126;-61
2022/05/14 07:18:22;;;;;;;26.05;10.35;;;14.20;99.90;;;;;;4939517;29;20545;-65
2022/05/14 07:20:47;;;;;;;34.90;11.05;;;14.30;99.90;;;;;;4940472;29;20559;-64
2022/05/14 07:23:13;;;;;;;25.67;9.60;;;14.40;99.90;;;;;;4939844;29;20047;-66
2022/05/14 07:25:39;;;;;;;27.05;9.25;;;14.50;99.90;;;;;;4949034;28;20050;-66
2022/05/14 07:28:05;;;;;;;27.65;9.13;;;14.60;99.90;;;;;;4936912;28;20043;-66
2022/05/14 07:30:32;;;;;;;24.08;9.85;;;14.60;99.90;;;;;;4937703;29;20047;-65
2022/05/14 07:32:58;;;;;;;28.80;9.90;;;14.80;99.90;;;;;;4952799;29;20106;-66
2022/05/14 07:35:23;;;;;;;32.70;8.90;;;14.90;99.90;;;;;;4954498;28;20422;-66
2022/05/14 07:37:53;;;;;;;22.20;8.57;;;15.00;99.90;;;;;;4952225;28;20043;-61
2022/05/14 07:40:22;;;;;;;25.77;8.75;;;15.00;99.90;;;;;;4942593;29;20050;-66
2022/05/14 07:43:15;;;;;;;20.88;6.68;;;15.10;99.90;;;;;;4944066;29;20123;-65
2022/05/14 07:45:47;;;;;;;23.73;7.30;;;15.30;99.90;;;;;;4945476;29;20422;-66
2022/05/14 07:48:20;;;;;;;19.40;6.93;;;15.40;99.90;;;;;;4936380;28;20036;-66
2022/05/14 07:50:46;;;;;;;20.35;6.55;;;15.40;99.90;;;;;;4949424;28;20475;-65
2022/05/14 07:53:14;;;;;;;21.55;7.22;;;15.40;99.90;;;;;;4944808;28;20128;-65
2022/05/14 07:55:42;;;;;;;23.20;6.50;;;15.50;99.90;;;;;;4941551;29;20401;-66
2022/05/14 07:58:08;;;;;;;17.55;5.50;;;15.50;99.90;;;;;;4943114;28;20043;-66
2022/05/14 08:00:34;;;;;;;22.85;6.00;;;15.60;99.90;;;;;;4952748;28;20380;-65
2022/05/14 08:03:01;;;;;;;23.58;5.70;;;15.60;99.90;;;;;;4949283;28;20094;-65
2022/05/14 08:05:27;;;;;;;24.75;6.70;;;15.70;99.90;;;;;;4933207;28;20067;-67
2022/05/14 08:07:52;;;;;;;21.63;6.90;;;15.80;99.90;;;;;;4939408;28;20082;-66
2022/05/14 08:10:18;;;;;;;23.83;6.50;;;15.80;99.90;;;;;;4932593;29;20708;-67
2022/05/14 08:12:47;;;;;;;19.13;5.95;;;15.80;99.90;;;;;;4939641;28;20082;-64
2022/05/14 08:15:15;;;;;;;26.13;6.45;;;15.90;99.90;;;;;;4936008;29;20039;-67
2022/05/14 08:17:42;;;;;;;22.75;6.22;;;16.00;99.90;;;;;;4947501;28;20049;-67
2022/05/14 08:20:08;;;;;;;17.33;6.07;;;16.10;99.90;;;;;;4939194;28;20057;-66
2022/05/14 08:25:19;;;;;;;24.83;5.85;;;16.20;99.90;;;;;;4934640;29;20047;-64
2022/05/14 08:27:45;;;;;;;23.05;6.38;;;16.30;99.90;;;;;;4937472;29;20049;-65
2022/05/14 08:30:36;;;;;;;26.48;7.13;;;16.30;99.90;;;;;;4950376;28;20043;-64
2022/05/14 08:33:03;;;;;;;22.02;6.80;;;16.40;99.90;;;;;;4932721;29;20294;-65
2022/05/14 08:35:29;;;;;;;19.00;5.65;;;16.50;99.90;;;;;;4931135;29;20046;-65
2022/05/14 08:37:55;;;;;;;22.98;5.63;;;16.70;99.90;;;;;;4942323;28;20047;-65
2022/05/14 08:40:40;;;;;;;22.77;5.50;;;16.80;99.90;;;;;;4940448;28;20048;-65
2022/05/14 08:43:17;;;;;;;23.88;5.50;;;16.90;99.90;;;;;;4949868;28;20082;-65
2022/05/14 08:45:44;;;;;;;23.77;5.95;;;16.90;99.90;;;;;;4952785;28;20039;-64
2022/05/14 08:48:30;;;;;;;21.92;6.35;;;16.90;99.90;;;;;;4943651;28;20457;-65
2022/05/14 08:51:04;;;;;;;20.15;5.35;;;17.10;99.90;;;;;;4947669;29;20058;-66
2022/05/14 08:53:32;;;;;;;20.80;4.90;;;17.20;99.90;;;;;;4942336;28;20044;-65
2022/05/14 08:56:18;;;;;;;24.75;5.07;;;17.20;99.90;;;;;;4945495;29;20039;-65
2022/05/14 08:59:03;;;;;;;19.85;5.00;;;17.30;99.90;;;;;;4953399;28;20079;-66
2022/05/14 09:01:33;;;;;;;19.40;4.88;;;17.40;99.90;;;;;;4942284;28;20055;-63
2022/05/14 09:03:58;;;;;;;24.83;5.60;;;17.40;99.90;;;;;;4946777;29;20039;-64
2022/05/14 09:06:24;;;;;;;18.25;5.10;;;17.40;99.90;;;;;;4937179;28;20053;-65
2022/05/14 09:08:50;;;;;;;21.20;5.10;;;17.70;99.90;;;;;;4944275;28;20335;-65
2022/05/14 09:11:29;;;;;;;17.95;5.55;;;17.90;99.90;;;;;;4941104;29;20047;-64
2022/05/14 09:14:00;;;;;;;19.88;5.32;;;18.10;99.90;;;;;;4949872;28;20035;-64
2022/05/14 09:16:35;;;;;;;23.67;5.72;;;18.30;99.90;;;;;;4938663;28;20044;-64
2022/05/14 09:19:13;;;;;;;16.38;4.90;;;18.40;99.90;;;;;;4942814;29;20045;-65
2022/05/14 09:21:53;;;;;;;15.73;5.35;;;18.30;99.90;;;;;;4938366;28;20043;-64
2022/05/14 09:24:27;;;;;;;19.63;5.93;;;18.30;99.90;;;;;;4947379;29;20039;-64
2022/05/14 09:26:55;;;;;;;21.83;5.68;;;18.30;99.90;;;;;;4939553;28;20372;-64
2022/05/14 09:29:36;;;;;;;19.88;5.57;;;18.50;99.90;;;;;;4948392;28;20066;-63
2022/05/14 09:32:16;;;;;;;23.08;5.72;;;18.60;99.50;;;;;;4956549;28;20035;-64
2022/05/14 09:34:41;;;;;;;20.45;5.68;;;18.70;99.60;;;;;;4955789;28;20129;-65
2022/05/14 09:37:11;;;;;;;25.08;5.97;;;18.90;99.90;;;;;;4945592;28;20158;-65
2022/05/14 09:39:38;;;;;;;16.20;5.35;;;19.00;99.90;;;;;;4970194;23;20059;-65
2022/05/14 09:42:05;;;;;;;20.95;6.20;;;19.10;99.90;;;;;;4962059;28;20047;-63
2022/05/14 09:44:44;;;;;;;18.75;5.45;;;19.20;99.90;;;;;;4950814;28;20046;-65
2022/05/14 09:47:14;;;;;;;20.27;5.60;;;19.10;99.90;;;;;;4929902;28;20498;-63
2022/05/14 09:49:42;;;;;;;19.40;5.25;;;19.10;99.90;;;;;;4922809;29;20048;-65
2022/05/14 09:52:13;;;;;;;21.40;5.47;;;19.10;99.90;;;;;;4913047;29;20482;-65
2022/05/14 09:54:50;;;;;;;20.35;5.65;;;19.20;99.90;;;;;;4917609;29;20052;-65
2022/05/14 09:57:38;;;;;;;19.42;5.80;;;19.20;99.90;;;;;;4940907;29;20279;-65
2022/05/14 10:00:21;;;;;;;21.33;5.47;;;19.10;98.50;;;;;;4927934;29;20038;-64
2022/05/14 10:03:27;;;;;;;22.73;5.50;;;19.30;99.60;;;;;;4934379;29;20040;-65
2022/05/14 10:06:19;;;;;;;18.15;5.13;;;19.40;97.00;;;;;;4927250;29;20043;-65
2022/05/14 10:09:05;;;;;;;16.80;5.20;;;19.50;97.50;;;;;;4932000;29;20167;-65
2022/05/14 10:11:35;;;;;;;20.90;5.63;;;19.50;97.70;;;;;;4934636;29;20483;-65
2022/05/14 10:14:22;;;;;;;16.67;5.43;;;19.70;99.40;;;;;;4930367;29;20039;-65
2022/05/14 10:17:23;;;;;;;18.48;5.35;;;19.70;97.40;;;;;;4930167;29;20511;-64
2022/05/14 10:20:05;;;;;;;20.27;5.45;;;19.90;96.10;;;;;;4933675;29;20094;-65
2022/05/14 10:29:07;;;;;;;19.55;5.18;;;19.80;95.90;;;;;;4933884;29;20047;-65
2022/05/14 10:31:52;;;;;;;14.85;4.65;;;19.80;97.50;;;;;;4924014;29;20047;-65
2022/05/14 10:34:35;;;;;;;19.92;5.57;;;19.90;97.10;;;;;;4918936;29;20063;-65
2022/05/14 10:37:07;;;;;;;26.13;5.70;;;19.80;96.30;;;;;;4914599;29;20036;-65
2022/05/14 10:39:46;;;;;;;24.20;5.75;;;19.80;96.20;;;;;;4929100;29;20255;-65
2022/05/14 10:42:36;;;;;;;18.60;4.72;;;19.80;95.90;;;;;;4920825;29;20043;-65
2022/05/14 10:45:09;;;;;;;22.65;5.80;;;20.10;94.60;;;;;;4933378;29;20039;-65
2022/05/14 10:47:42;;;;;;;17.60;4.78;;;20.10;96.00;;;;;;4933349;29;20083;-64
2022/05/14 10:50:18;;;;;;;23.70;5.45;;;19.90;95.70;;;;;;4927132;29;20089;-63
2022/05/14 10:52:45;;;;;;;21.13;5.75;;;19.70;94.40;;;;;;4931615;29;20052;-64
2022/05/14 10:55:17;;;;;;;20.17;4.93;;;19.60;97.10;;;;;;4934459;29;20406;-65
2022/05/14 10:57:48;;;;;;;18.60;5.13;;;19.50;96.40;;;;;;4927905;29;20048;-65
2022/05/14 11:00:28;;;;;;;22.85;5.05;;;19.60;97.00;;;;;;4928590;29;20047;-66
2022/05/14 11:03:10;;;;;;;22.17;5.72;;;19.50;95.80;;;;;;4932576;29;20039;-65
2022/05/14 11:06:02;;;;;;;16.88;4.80;;;19.50;95.50;;;;;;4930212;29;20046;-65
2022/05/14 11:08:31;;;;;;;20.23;5.68;;;19.80;96.90;;;;;;4929823;29;20048;-65
2022/05/14 11:11:09;;;;;;;19.63;5.15;;;20.10;96.80;;;;;;4929842;29;20047;-64
2022/05/14 11:13:35;;;;;;;16.65;4.57;;;20.40;96.20;;;;;;4928612;29;20076;-65
2022/05/14 11:16:11;;;;;;;16.80;4.72;;;20.70;94.30;;;;;;4933136;29;20130;-65
2022/05/14 11:18:52;;;;;;;17.15;4.50;;;21.10;94.90;;;;;;4924676;29;20040;-65
2022/05/14 11:21:19;;;;;;;16.08;4.32;;;21.00;92.80;;;;;;4930423;29;20202;-65
2022/05/14 11:23:53;;;;;;;20.52;4.65;;;21.00;94.90;;;;;;4927567;29;20052;-63
2022/05/14 11:26:19;;;;;;;16.15;4.75;;;20.80;93.10;;;;;;4927797;29;20106;-66
2022/05/14 11:28:58;;;;;;;19.77;5.10;;;21.00;94.30;;;;;;4933423;29;20047;-64
2022/05/14 11:31:29;;;;;;;15.68;4.18;;;21.20;91.00;;;;;;4930517;29;20039;-65
2022/05/14 11:33:58;;;;;;;18.67;5.17;;;21.20;92.40;;;;;;4919236;29;20044;-65
2022/05/14 11:36:46;;;;;;;17.70;4.50;;;21.40;92.20;;;;;;4922427;29;20280;-65
2022/05/14 11:39:23;;;;;;;18.15;4.57;;;21.20;78.70;;;;;;4909794;29;20040;-65
2022/05/14 11:41:54;;;;;;;18.73;4.70;;;21.00;90.10;;;;;;4919957;29;20119;-65
2022/05/14 11:44:44;;;;;;;17.40;5.00;;;20.60;87.20;;;;;;4925124;29;20213;-65
2022/05/14 11:47:31;;;;;;;21.95;4.60;;;20.50;90.80;;;;;;4915044;29;20500;-64
2022/05/14 11:50:00;;;;;;;23.20;5.07;;;20.50;91.80;;;;;;4917735;29;20039;-65
2022/05/14 11:52:47;;;;;;;20.95;4.78;;;20.50;92.00;;;;;;4922796;29;20039;-65
2022/05/14 11:55:20;;;;;;;20.83;4.85;;;20.40;92.00;;;;;;4920992;29;20044;-63
2022/05/14 11:58:06;;;;;;;13.52;3.78;;;20.60;91.30;;;;;;4921061;29;20040;-64
2022/05/14 12:00:34;;;;;;;17.25;4.78;;;21.20;90.90;;;;;;4931887;29;20118;-64
2022/05/14 12:03:15;;;;;;;15.60;4.10;;;21.60;87.50;;;;;;4931956;29;20047;-64
2022/05/14 12:05:47;;;;;;;20.90;4.93;;;21.70;81.10;;;;;;4924972;29;20115;-64
2022/05/14 12:08:50;;;;;;;16.50;4.45;;;21.50;84.20;;;;;;4925198;29;20107;-65
2022/05/14 12:11:32;;;;;;;19.15;4.55;;;21.50;81.80;;;;;;4923960;28;20135;-66
2022/05/14 12:14:18;;;;;;;19.13;4.15;;;21.50;79.80;;;;;;4923028;29;20468;-64
2022/05/14 12:16:51;;;;;;;22.25;4.78;;;21.50;75.50;;;;;;4933217;29;20048;-66
2022/05/14 12:19:27;;;;;;;20.92;4.70;;;21.50;82.00;;;;;;4933580;29;20074;-64
2022/05/14 12:22:02;;;;;;;14.60;4.35;;;21.70;78.90;;;;;;4928492;29;20051;-63
2022/05/14 12:24:31;;;;;;;21.73;4.70;;;22.00;77.90;;;;;;4932791;29;20036;-66
2022/05/14 12:26:57;;;;;;;13.50;4.10;;;22.20;82.00;;;;;;4933597;29;20139;-65
2022/05/14 12:29:34;;;;;;;20.83;5.07;;;22.30;81.60;;;;;;4917545;29;20123;-66
2022/05/14 12:35:12;;;;;;;15.13;4.10;;;21.60;74.90;;;;;;4928611;29;20044;-65
2022/05/14 12:37:40;;;;;;;14.27;4.07;;;21.50;79.10;;;;;;4932517;29;20046;-65
2022/05/14 12:40:08;;;;;;;16.67;5.20;;;21.50;79.00;;;;;;4926121;29;20071;-66
2022/05/14 12:42:38;;;;;;;15.07;4.32;;;21.40;79.70;;;;;;4932962;29;20086;-65
2022/05/14 12:45:05;;;;;;;17.08;4.90;;;21.30;71.80;;;;;;4931327;29;20466;-65
2022/05/14 12:47:34;;;;;;;14.60;4.90;;;21.40;75.20;;;;;;4935081;29;20040;-65
2022/05/14 12:50:01;;;;;;;14.93;4.10;;;21.50;80.10;;;;;;4932686;29;20750;-65
2022/05/14 12:52:32;;;;;;;14.57;4.43;;;21.50;78.90;;;;;;4933026;29;20043;-65
2022/05/14 12:55:11;;;;;;;13.60;4.15;;;21.40;75.40;;;;;;4929126;29;20098;-65
2022/05/14 12:57:42;;;;;;;18.58;4.45;;;21.20;72.70;;;;;;4921024;29;20447;-65
2022/05/14 13:00:09;;;;;;;19.63;4.82;;;21.10;75.20;;;;;;4927420;29;20055;-65
2022/05/14 13:02:41;;;;;;;14.25;4.30;;;21.00;77.50;;;;;;4922269;29;20102;-65
2022/05/14 13:05:32;;;;;;;15.48;3.90;;;21.10;77.40;;;;;;4927250;29;20046;-65
2022/05/14 13:08:18;;;;;;;17.30;4.53;;;21.10;72.00;;;;;;4935513;29;20040;-65
2022/05/14 13:10:53;;;;;;;17.80;4.45;;;21.10;73.50;;;;;;4930432;29;20046;-65
2022/05/14 13:13:32;;;;;;;21.00;4.72;;;21.10;69.10;;;;;;4918938;29;20043;-63
2022/05/14 13:15:57;;;;;;;14.38;3.90;;;21.00;70.60;;;;;;4931531;29;20042;-65
2022/05/14 13:18:31;;;;;;;15.40;4.47;;;21.10;73.90;;;;;;4926015;29;20119;-65
2022/05/14 13:21:21;;;;;;;15.85;4.63;;;21.50;71.10;;;;;;4922166;29;20126;-65